Time;durP1;ratioP1;P1;durP2;ratioP2;P2;SDS_P1;SDS_P2;PMS_P1;PMS_P2;Temp;Humidity;BMP_temperature;BMP_pressure;BME280_temperature;BME280_humidity;BME280_pressure;Samples;Min_cycle;Max_cycle;Signal;HPM_P1;HPM_P2
2023/11/10 00:00:09;;;;;;;11.55;10.73;;;6.60;99.90;;;;;;5031302;28;20052;-75
2023/11/10 00:02:40;;;;;;;11.43;10.80;;;6.60;99.90;;;;;;5027147;28;20049;-74
2023/11/10 00:05:08;;;;;;;11.20;10.60;;;6.60;99.90;;;;;;5030046;28;20705;-75
2023/11/10 00:07:35;;;;;;;11.23;10.63;;;6.60;99.90;;;;;;5006458;28;20130;-74
2023/11/10 00:10:04;;;;;;;11.30;10.57;;;6.60;99.90;;;;;;5026607;28;20057;-75
2023/11/10 00:12:32;;;;;;;11.20;10.60;;;6.60;99.90;;;;;;5023576;28;20037;-75
2023/11/10 00:14:59;;;;;;;11.30;10.70;;;6.60;99.90;;;;;;5044047;28;20700;-76
2023/11/10 00:17:25;;;;;;;11.90;11.00;;;6.50;99.90;;;;;;5005817;28;20526;-75
2023/11/10 00:19:52;;;;;;;11.68;10.93;;;6.50;99.90;;;;;;5013386;28;20148;-75
2023/11/10 00:22:19;;;;;;;12.55;11.65;;;6.60;99.90;;;;;;5023740;28;20041;-74
2023/11/10 00:24:46;;;;;;;13.95;12.73;;;6.60;99.90;;;;;;5030976;28;20502;-76
2023/11/10 00:27:14;;;;;;;13.65;12.43;;;6.60;99.90;;;;;;5027967;28;20041;-75
2023/11/10 00:29:42;;;;;;;13.43;12.48;;;6.50;99.90;;;;;;5021699;28;20177;-75
2023/11/10 00:32:09;;;;;;;13.68;12.60;;;6.50;99.90;;;;;;5032155;28;20064;-75
2023/11/10 00:34:36;;;;;;;12.65;12.13;;;6.40;99.90;;;;;;5021066;28;20045;-75
2023/11/10 00:37:04;;;;;;;13.35;12.13;;;6.40;99.90;;;;;;5027523;28;20373;-74
2023/11/10 00:39:31;;;;;;;13.70;12.43;;;6.30;99.90;;;;;;5026247;28;20072;-76
2023/11/10 00:41:58;;;;;;;13.07;12.00;;;6.30;99.90;;;;;;5022456;28;20044;-75
2023/11/10 00:44:27;;;;;;;13.25;12.07;;;6.20;99.90;;;;;;5006418;28;20094;-76
2023/11/10 00:46:54;;;;;;;13.07;11.82;;;6.20;99.90;;;;;;5031174;28;20120;-75
2023/11/10 00:49:22;;;;;;;11.82;10.93;;;6.20;99.90;;;;;;5029971;28;20041;-74
2023/11/10 00:51:49;;;;;;;12.57;11.63;;;6.20;99.90;;;;;;5034107;28;20052;-75
2023/11/10 00:54:16;;;;;;;12.13;11.27;;;6.20;99.90;;;;;;5028837;28;20041;-75
2023/11/10 00:56:44;;;;;;;12.25;11.32;;;6.30;99.90;;;;;;5026113;28;22081;-76
2023/11/10 00:59:11;;;;;;;12.10;11.40;;;6.30;99.90;;;;;;5029110;28;20026;-74
2023/11/10 01:01:38;;;;;;;12.18;11.18;;;6.40;99.90;;;;;;5007182;28;20156;-74
2023/11/10 01:04:06;;;;;;;12.20;11.07;;;6.30;99.90;;;;;;5031734;28;20574;-75
2023/11/10 01:06:33;;;;;;;12.90;11.90;;;6.30;99.90;;;;;;5009470;28;20041;-76
2023/11/10 01:09:01;;;;;;;16.30;12.98;;;6.30;99.90;;;;;;5025372;28;20076;-75
2023/11/10 01:11:27;;;;;;;13.63;11.80;;;6.30;99.90;;;;;;5022269;28;20048;-75
2023/11/10 01:13:54;;;;;;;13.32;11.95;;;6.20;99.90;;;;;;5031086;28;20044;-75
2023/11/10 01:16:22;;;;;;;13.32;11.85;;;6.20;99.90;;;;;;5028086;28;20052;-75
2023/11/10 01:18:50;;;;;;;15.73;12.00;;;6.20;99.90;;;;;;5011010;28;20042;-76
2023/11/10 01:21:18;;;;;;;13.25;12.20;;;6.10;99.90;;;;;;5042093;28;20040;-75
2023/11/10 01:23:46;;;;;;;12.60;11.77;;;6.10;99.90;;;;;;5022961;28;20055;-75
2023/11/10 01:26:13;;;;;;;13.13;12.02;;;6.10;99.90;;;;;;5026301;28;20049;-76
2023/11/10 01:28:39;;;;;;;13.20;11.93;;;6.00;99.90;;;;;;5019902;28;20041;-76
2023/11/10 01:31:06;;;;;;;13.57;12.45;;;6.00;99.90;;;;;;5025706;28;20044;-75
2023/11/10 01:33:33;;;;;;;13.68;12.68;;;6.10;99.90;;;;;;5023802;28;20068;-75
2023/11/10 01:36:00;;;;;;;13.60;12.70;;;6.00;99.90;;;;;;5026208;28;20045;-75
2023/11/10 01:38:27;;;;;;;14.18;13.27;;;6.10;99.90;;;;;;5023463;28;20061;-75
2023/11/10 01:40:54;;;;;;;15.45;13.88;;;6.10;99.90;;;;;;5024177;28;20044;-76
2023/11/10 01:43:23;;;;;;;14.65;13.60;;;6.10;99.90;;;;;;5022992;28;20144;-76
2023/11/10 01:45:50;;;;;;;14.65;13.48;;;6.10;99.90;;;;;;5022491;28;20420;-76
2023/11/10 01:48:19;;;;;;;15.77;13.30;;;6.10;99.90;;;;;;5029982;28;20601;-75
2023/11/10 01:50:46;;;;;;;14.98;13.30;;;6.10;99.90;;;;;;5027116;28;20658;-76
2023/11/10 01:53:13;;;;;;;13.95;12.95;;;6.00;99.90;;;;;;5029146;28;20029;-76
2023/11/10 01:55:43;;;;;;;15.27;14.05;;;5.90;99.90;;;;;;5024368;28;21386;-76
2023/11/10 01:58:11;;;;;;;13.30;12.27;;;5.90;99.90;;;;;;5033223;28;20407;-76
2023/11/10 02:00:39;;;;;;;13.38;12.38;;;5.80;99.90;;;;;;5020272;28;20049;-76
2023/11/10 02:03:07;;;;;;;13.23;12.32;;;5.80;99.90;;;;;;5014876;28;20069;-75
2023/11/10 02:05:36;;;;;;;12.65;11.95;;;5.70;99.90;;;;;;5025063;28;20099;-75
2023/11/10 02:08:04;;;;;;;12.77;11.90;;;5.70;99.90;;;;;;5027966;28;20464;-76
2023/11/10 02:10:32;;;;;;;12.00;11.30;;;5.70;99.90;;;;;;5023592;28;20583;-77
2023/11/10 02:13:02;;;;;;;12.52;11.65;;;5.70;99.90;;;;;;5028990;28;20049;-76
2023/11/10 02:15:29;;;;;;;12.40;11.45;;;5.80;99.90;;;;;;5024597;28;20708;-76
2023/11/10 02:17:56;;;;;;;13.63;12.27;;;5.80;99.90;;;;;;5012707;28;20108;-76
2023/11/10 02:20:23;;;;;;;12.73;11.88;;;5.80;99.90;;;;;;5031070;28;20525;-76
2023/11/10 02:22:50;;;;;;;13.23;11.85;;;5.80;99.90;;;;;;5024096;28;20140;-75
2023/11/10 02:25:19;;;;;;;12.63;11.70;;;5.80;99.90;;;;;;5028207;28;20133;-76
2023/11/10 02:27:47;;;;;;;13.07;12.23;;;5.80;99.90;;;;;;5024616;28;20044;-77
2023/11/10 02:30:14;;;;;;;12.82;11.93;;;5.90;99.90;;;;;;5032530;28;20044;-75
2023/11/10 02:32:42;;;;;;;12.52;11.48;;;5.90;99.90;;;;;;5025863;28;21193;-76
2023/11/10 02:35:11;;;;;;;13.73;12.32;;;5.90;99.90;;;;;;5029414;28;20132;-76
2023/11/10 02:37:39;;;;;;;12.73;11.70;;;6.00;99.90;;;;;;5009906;28;20076;-76
2023/11/10 02:40:08;;;;;;;12.15;11.40;;;6.00;99.90;;;;;;5027374;28;20119;-76
2023/11/10 02:42:35;;;;;;;13.88;12.60;;;6.10;99.90;;;;;;5008084;28;20045;-75
2023/11/10 02:45:04;;;;;;;13.52;12.70;;;6.10;99.90;;;;;;5029293;28;20104;-76
2023/11/10 02:47:31;;;;;;;12.85;12.13;;;6.20;99.90;;;;;;5024908;28;20128;-76
2023/11/10 02:49:58;;;;;;;13.32;12.43;;;6.20;99.90;;;;;;5026267;28;20045;-76
2023/11/10 02:52:25;;;;;;;13.73;12.15;;;6.20;99.90;;;;;;5028555;28;20041;-76
2023/11/10 02:54:52;;;;;;;12.15;11.55;;;6.20;99.90;;;;;;5027007;28;20041;-76
2023/11/10 02:57:21;;;;;;;12.82;12.18;;;6.20;99.90;;;;;;5030337;28;20122;-76
2023/11/10 02:59:48;;;;;;;13.57;12.48;;;6.20;99.90;;;;;;5006416;28;20037;-77
2023/11/10 03:02:15;;;;;;;12.88;12.00;;;6.20;99.90;;;;;;5027593;28;20088;-76
2023/11/10 03:04:42;;;;;;;13.30;12.43;;;6.20;99.90;;;;;;5008803;28;20076;-75
2023/11/10 03:07:10;;;;;;;13.88;12.82;;;6.20;99.90;;;;;;5031758;28;20523;-76
2023/11/10 03:09:39;;;;;;;13.07;12.13;;;6.10;99.90;;;;;;5022733;28;20049;-76
2023/11/10 03:12:08;;;;;;;13.93;12.70;;;6.20;99.90;;;;;;5028090;28;20045;-76
2023/11/10 03:14:35;;;;;;;13.40;12.57;;;6.20;99.90;;;;;;5023771;28;20132;-76
2023/11/10 03:17:03;;;;;;;15.70;12.55;;;6.10;99.90;;;;;;5028204;28;20040;-76
2023/11/10 03:19:30;;;;;;;13.70;12.90;;;6.10;99.90;;;;;;5022373;28;20495;-75
2023/11/10 03:21:57;;;;;;;13.57;12.60;;;6.10;99.90;;;;;;5009689;28;20052;-76
2023/11/10 03:24:24;;;;;;;13.70;12.77;;;6.10;99.90;;;;;;5027343;28;20090;-76
2023/11/10 03:26:51;;;;;;;12.93;12.23;;;6.10;99.90;;;;;;5022438;28;20061;-76
2023/11/10 03:29:18;;;;;;;13.30;12.35;;;6.10;99.90;;;;;;5028896;28;20511;-76
2023/11/10 03:31:45;;;;;;;12.85;12.25;;;6.20;99.90;;;;;;5024748;28;20681;-76
2023/11/10 03:34:12;;;;;;;14.25;12.32;;;6.20;99.90;;;;;;5029496;28;20048;-76
2023/11/10 03:36:39;;;;;;;12.98;12.20;;;6.20;99.90;;;;;;5026010;28;20218;-76
2023/11/10 03:39:06;;;;;;;13.57;12.75;;;6.20;99.90;;;;;;5028441;28;20033;-76
2023/11/10 03:41:33;;;;;;;13.80;12.75;;;6.10;99.90;;;;;;5026616;28;20040;-74
2023/11/10 03:43:59;;;;;;;13.85;12.70;;;6.00;99.90;;;;;;5027954;28;20349;-76
2023/11/10 03:46:26;;;;;;;14.23;13.13;;;5.90;99.90;;;;;;5028993;28;20117;-77
2023/11/10 03:48:53;;;;;;;13.00;12.07;;;5.80;99.90;;;;;;5026183;28;20823;-77
2023/11/10 03:51:19;;;;;;;12.65;11.85;;;5.70;99.90;;;;;;5029063;28;20395;-76
2023/11/10 03:53:47;;;;;;;13.13;12.10;;;5.60;99.90;;;;;;5026540;28;20041;-76
2023/11/10 03:56:14;;;;;;;12.40;11.32;;;5.60;99.90;;;;;;5029398;28;20517;-76
2023/11/10 03:58:41;;;;;;;13.32;12.02;;;5.50;99.90;;;;;;5024282;28;20483;-76
2023/11/10 04:01:11;;;;;;;11.50;10.80;;;5.40;99.90;;;;;;5048657;28;20045;-76
2023/11/10 04:03:39;;;;;;;11.77;11.00;;;5.40;99.90;;;;;;5011206;28;20095;-76
2023/11/10 04:06:06;;;;;;;11.93;10.98;;;5.30;99.90;;;;;;5052144;28;20048;-77
2023/11/10 04:08:34;;;;;;;11.98;11.18;;;5.30;99.90;;;;;;5038200;28;20059;-75
2023/11/10 04:11:01;;;;;;;11.25;10.63;;;5.20;99.90;;;;;;5035207;28;20041;-76
2023/11/10 04:13:28;;;;;;;12.45;11.00;;;5.30;99.90;;;;;;5037784;28;20127;-76
2023/11/10 04:15:56;;;;;;;11.75;11.07;;;5.30;99.90;;;;;;5031896;28;20045;-76
2023/11/10 04:18:27;;;;;;;10.65;10.07;;;5.30;99.90;;;;;;5033676;28;20056;-76
2023/11/10 04:20:55;;;;;;;11.13;10.27;;;5.30;99.90;;;;;;5020492;28;20041;-77
2023/11/10 04:23:22;;;;;;;10.88;10.02;;;5.30;99.90;;;;;;5026908;28;20060;-77
2023/11/10 04:25:49;;;;;;;9.95;9.05;;;5.30;99.90;;;;;;5023022;28;20049;-76
2023/11/10 04:28:16;;;;;;;10.27;9.32;;;5.30;99.90;;;;;;5031157;28;20036;-76
2023/11/10 04:30:44;;;;;;;9.80;9.10;;;5.30;99.90;;;;;;5022806;28;20057;-77
2023/11/10 04:33:11;;;;;;;10.23;9.43;;;5.40;99.90;;;;;;5024835;28;20052;-77
2023/11/10 04:35:38;;;;;;;10.60;9.55;;;5.50;99.90;;;;;;5022557;28;20049;-75
2023/11/10 04:38:08;;;;;;;9.77;8.98;;;5.50;99.90;;;;;;5024289;28;20159;-76
2023/11/10 04:40:35;;;;;;;9.70;8.90;;;5.50;99.90;;;;;;5023836;28;20045;-76
2023/11/10 04:43:02;;;;;;;10.10;9.10;;;5.50;99.90;;;;;;5025168;28;20055;-76
2023/11/10 04:45:29;;;;;;;9.25;8.38;;;5.50;99.90;;;;;;5024677;28;20064;-76
2023/11/10 04:47:55;;;;;;;10.25;8.20;;;5.60;99.90;;;;;;5006293;28;20526;-78
2023/11/10 04:50:22;;;;;;;8.80;8.10;;;5.60;99.90;;;;;;5027330;28;20383;-76
2023/11/10 04:52:51;;;;;;;9.95;9.00;;;5.60;99.90;;;;;;5003920;28;20045;-76
2023/11/10 04:55:18;;;;;;;9.60;8.80;;;5.70;99.90;;;;;;5009851;28;20545;-78
2023/11/10 04:57:46;;;;;;;9.65;9.07;;;5.70;99.90;;;;;;5024590;28;20049;-77
2023/11/10 05:00:13;;;;;;;10.10;9.25;;;5.80;99.90;;;;;;5026531;28;20048;-76
2023/11/10 05:02:44;;;;;;;11.05;10.02;;;5.80;99.90;;;;;;5025447;28;20040;-76
2023/11/10 05:05:14;;;;;;;10.25;9.27;;;5.80;99.90;;;;;;5022755;28;20049;-79
2023/11/10 05:07:41;;;;;;;10.35;9.65;;;5.90;99.90;;;;;;5021907;28;20048;-77
2023/11/10 05:10:09;;;;;;;9.57;8.88;;;5.90;99.90;;;;;;5025156;28;20172;-77
2023/11/10 05:12:36;;;;;;;9.93;9.07;;;5.90;99.90;;;;;;5025977;28;20056;-76
2023/11/10 05:15:05;;;;;;;9.93;9.13;;;5.90;99.90;;;;;;5024463;28;20049;-78
2023/11/10 05:17:43;;;;;;;10.07;9.20;;;6.00;99.90;;;;;;5043485;28;20033;-77
2023/11/10 05:20:10;;;;;;;9.75;9.10;;;6.00;99.90;;;;;;5018097;28;22012;-76
2023/11/10 05:22:42;;;;;;;9.75;9.15;;;5.90;99.90;;;;;;5024812;28;20052;-77
2023/11/10 05:25:09;;;;;;;9.30;8.55;;;5.90;99.90;;;;;;5020994;28;20068;-78
2023/11/10 05:27:36;;;;;;;9.15;8.45;;;5.90;99.90;;;;;;5029024;28;20033;-77
2023/11/10 05:30:04;;;;;;;8.75;8.02;;;5.90;99.90;;;;;;5023215;28;20565;-77
2023/11/10 05:32:31;;;;;;;8.63;7.97;;;5.80;99.90;;;;;;5027646;28;20044;-76
2023/11/10 05:34:58;;;;;;;9.13;8.63;;;5.80;99.90;;;;;;5004415;28;20502;-75
2023/11/10 05:37:26;;;;;;;8.88;8.20;;;5.90;99.90;;;;;;5026189;28;20052;-75
2023/11/10 05:39:53;;;;;;;8.90;8.18;;;5.90;99.90;;;;;;5036774;28;20076;-75
2023/11/10 05:42:21;;;;;;;8.30;7.68;;;5.90;99.90;;;;;;5020421;28;20038;-75
2023/11/10 05:44:49;;;;;;;8.80;8.18;;;5.90;99.90;;;;;;5022187;28;20225;-76
2023/11/10 05:47:16;;;;;;;8.55;7.88;;;5.90;99.90;;;;;;5026533;28;20045;-75
2023/11/10 05:49:43;;;;;;;8.73;7.90;;;5.90;99.90;;;;;;5022092;28;20502;-74
2023/11/10 05:52:11;;;;;;;8.38;7.70;;;5.90;99.90;;;;;;5024163;28;20519;-74
2023/11/10 05:54:39;;;;;;;9.40;8.57;;;5.80;99.90;;;;;;5024725;28;20091;-78
2023/11/10 05:57:07;;;;;;;9.25;8.30;;;5.80;99.90;;;;;;5028473;28;20063;-74
2023/11/10 05:59:34;;;;;;;8.35;7.65;;;5.80;99.90;;;;;;5028314;28;20041;-75
2023/11/10 06:02:02;;;;;;;8.40;7.80;;;5.80;99.90;;;;;;5016157;28;20142;-75
2023/11/10 06:04:29;;;;;;;9.02;8.23;;;5.80;99.90;;;;;;5024856;28;20048;-75
2023/11/10 06:07:02;;;;;;;9.55;7.20;;;5.80;99.90;;;;;;5018434;28;20045;-75
2023/11/10 06:09:33;;;;;;;8.68;7.93;;;5.80;99.90;;;;;;5023812;28;20128;-77
2023/11/10 06:12:00;;;;;;;7.63;7.22;;;5.80;99.90;;;;;;5021203;28;20138;-75
2023/11/10 06:14:28;;;;;;;7.80;7.10;;;5.90;99.90;;;;;;5024779;28;20043;-75
2023/11/10 06:16:55;;;;;;;9.07;7.97;;;6.00;99.90;;;;;;5021717;28;20577;-75
2023/11/10 06:19:22;;;;;;;9.30;8.60;;;6.00;99.90;;;;;;5025229;28;20527;-75
2023/11/10 06:21:50;;;;;;;9.52;8.35;;;6.10;99.90;;;;;;5002464;28;20744;-76
2023/11/10 06:24:19;;;;;;;9.82;8.93;;;6.10;99.90;;;;;;5008140;28;20068;-74
2023/11/10 06:26:47;;;;;;;10.00;9.10;;;6.20;99.90;;;;;;5005112;28;20043;-76
2023/11/10 06:29:14;;;;;;;12.40;9.82;;;6.20;99.90;;;;;;5021684;28;20522;-75
2023/11/10 06:31:41;;;;;;;9.98;9.38;;;6.30;99.90;;;;;;5022286;28;20037;-75
2023/11/10 06:34:08;;;;;;;11.63;10.38;;;6.30;99.90;;;;;;5026012;28;20060;-76
2023/11/10 06:36:35;;;;;;;10.70;10.10;;;6.30;99.90;;;;;;5007591;28;20052;-75
2023/11/10 06:39:02;;;;;;;10.93;10.25;;;6.40;99.90;;;;;;5025656;28;20049;-76
2023/11/10 06:41:30;;;;;;;11.07;10.57;;;6.40;99.90;;;;;;5026172;28;20131;-76
2023/11/10 06:43:56;;;;;;;11.93;11.02;;;6.50;99.90;;;;;;5023086;28;20133;-77
2023/11/10 06:46:23;;;;;;;11.77;11.13;;;6.40;99.90;;;;;;5026558;28;20041;-78
2023/11/10 06:48:51;;;;;;;11.75;11.15;;;6.40;99.90;;;;;;5021841;28;20162;-77
2023/11/10 06:51:19;;;;;;;14.50;13.18;;;6.40;99.90;;;;;;5028216;28;20041;-77
2023/11/10 06:53:46;;;;;;;12.23;11.30;;;6.40;99.90;;;;;;5022112;28;20049;-76
2023/11/10 06:56:14;;;;;;;11.90;11.10;;;6.40;99.90;;;;;;5024509;28;20107;-76
2023/11/10 06:58:40;;;;;;;11.57;10.77;;;6.40;99.90;;;;;;5030967;28;20708;-76
2023/11/10 07:01:09;;;;;;;11.48;10.77;;;6.40;99.90;;;;;;5008983;28;20792;-79
2023/11/10 07:03:36;;;;;;;11.80;11.20;;;6.40;99.90;;;;;;5023128;28;20099;-79
2023/11/10 07:06:04;;;;;;;11.85;11.13;;;6.50;99.90;;;;;;5007021;28;20045;-76
2023/11/10 07:08:32;;;;;;;12.70;11.90;;;6.50;99.90;;;;;;5026004;28;20040;-76
2023/11/10 07:11:02;;;;;;;13.10;12.40;;;6.50;99.90;;;;;;5025357;28;20059;-77
2023/11/10 07:13:30;;;;;;;13.05;12.23;;;6.60;99.90;;;;;;5028105;28;20045;-76
2023/11/10 07:15:57;;;;;;;12.40;11.80;;;6.60;99.90;;;;;;5022192;28;20044;-77
2023/11/10 07:18:25;;;;;;;11.98;11.32;;;6.60;99.90;;;;;;5029929;28;20063;-76
2023/11/10 07:20:54;;;;;;;12.40;11.75;;;6.70;99.90;;;;;;5004733;28;20045;-77
2023/11/10 07:23:21;;;;;;;14.55;13.63;;;6.70;99.90;;;;;;5026051;28;20466;-77
2023/11/10 07:25:48;;;;;;;18.77;17.48;;;6.70;99.90;;;;;;5006146;28;20507;-77
2023/11/10 07:28:15;;;;;;;18.13;17.02;;;6.70;99.90;;;;;;5026081;28;20037;-76
2023/11/10 07:30:43;;;;;;;17.40;16.30;;;6.70;99.90;;;;;;5012472;28;20120;-77
2023/11/10 07:33:11;;;;;;;16.42;15.48;;;6.70;99.90;;;;;;5021351;28;20051;-76
2023/11/10 07:35:38;;;;;;;16.50;15.70;;;6.70;99.90;;;;;;5021968;28;20055;-77
2023/11/10 07:38:06;;;;;;;18.52;17.42;;;6.70;99.90;;;;;;5028637;28;20111;-77
2023/11/10 07:40:33;;;;;;;17.05;16.15;;;6.80;99.90;;;;;;5033755;28;20056;-77
2023/11/10 07:43:00;;;;;;;17.77;16.75;;;6.80;99.90;;;;;;5025095;28;20045;-73
2023/11/10 07:45:28;;;;;;;18.35;17.25;;;6.90;99.90;;;;;;5024305;28;20053;-73
2023/11/10 07:47:56;;;;;;;18.95;17.45;;;6.90;99.90;;;;;;5020601;28;20041;-72
2023/11/10 07:50:24;;;;;;;18.42;17.20;;;6.90;99.90;;;;;;5024018;28;20447;-74
2023/11/10 07:52:50;;;;;;;17.98;16.58;;;6.90;99.90;;;;;;5019643;28;20052;-73
2023/11/10 07:55:18;;;;;;;21.45;19.77;;;6.90;99.90;;;;;;5024683;28;20049;-74
2023/11/10 07:57:45;;;;;;;23.27;21.33;;;7.00;99.90;;;;;;5019480;28;20061;-73
2023/11/10 08:00:18;;;;;;;17.98;16.73;;;7.00;99.90;;;;;;5037886;28;20134;-74
2023/11/10 08:02:49;;;;;;;17.90;16.88;;;7.00;99.90;;;;;;5022067;28;20076;-73
2023/11/10 08:05:16;;;;;;;17.85;16.77;;;7.00;99.90;;;;;;5005993;28;20624;-74
2023/11/10 08:07:43;;;;;;;19.17;17.77;;;7.10;99.90;;;;;;5013925;28;20034;-74
2023/11/10 08:10:10;;;;;;;18.85;17.38;;;7.10;99.90;;;;;;5017458;28;20636;-73
2023/11/10 08:12:39;;;;;;;18.42;17.05;;;7.10;99.90;;;;;;5023368;28;20045;-73
2023/11/10 08:15:06;;;;;;;17.33;16.42;;;7.20;99.90;;;;;;5018713;28;20073;-73
2023/11/10 08:17:33;;;;;;;18.73;17.67;;;7.20;99.90;;;;;;5011820;28;20049;-73
2023/11/10 08:20:00;;;;;;;18.73;17.65;;;7.20;99.90;;;;;;5021172;28;20622;-73
2023/11/10 08:22:27;;;;;;;20.20;18.85;;;7.20;99.90;;;;;;5022856;28;20063;-74
2023/11/10 08:24:55;;;;;;;18.98;17.98;;;7.30;99.90;;;;;;5024275;28;20048;-74
2023/11/10 08:27:22;;;;;;;22.15;19.92;;;7.30;99.90;;;;;;5028914;28;20037;-75
2023/11/10 08:29:49;;;;;;;19.75;18.35;;;7.30;99.90;;;;;;5024248;28;20048;-73
2023/11/10 08:32:16;;;;;;;19.38;18.20;;;7.40;99.90;;;;;;5022521;28;20045;-73
2023/11/10 08:34:43;;;;;;;19.55;18.15;;;7.50;99.90;;;;;;5026838;28;20038;-74
2023/11/10 08:37:11;;;;;;;21.00;19.50;;;7.40;99.90;;;;;;5018036;28;20060;-74
2023/11/10 08:39:38;;;;;;;19.90;18.88;;;7.50;99.90;;;;;;5013376;28;20056;-74
2023/11/10 08:42:05;;;;;;;20.75;19.45;;;7.50;99.90;;;;;;5025693;28;20049;-73
2023/11/10 08:44:32;;;;;;;20.42;19.08;;;7.50;99.90;;;;;;5022447;28;20741;-75
2023/11/10 08:47:00;;;;;;;21.05;19.80;;;7.40;99.90;;;;;;5024892;28;20610;-75
2023/11/10 08:49:26;;;;;;;20.58;19.58;;;7.50;99.90;;;;;;5023175;28;20091;-75
2023/11/10 08:51:53;;;;;;;22.40;21.00;;;7.50;99.90;;;;;;5012908;28;20179;-75
2023/11/10 08:54:20;;;;;;;21.35;20.00;;;7.50;99.90;;;;;;5021726;28;20258;-75
2023/11/10 08:56:47;;;;;;;21.75;20.65;;;7.50;99.90;;;;;;5023295;28;20447;-75
2023/11/10 08:59:14;;;;;;;22.77;21.45;;;7.50;99.90;;;;;;5023412;28;20034;-75
2023/11/10 09:01:41;;;;;;;21.80;20.63;;;7.50;99.90;;;;;;5027683;28;20633;-73
2023/11/10 09:04:09;;;;;;;22.75;21.65;;;7.60;99.90;;;;;;5021530;28;20116;-73
2023/11/10 09:06:50;;;;;;;23.05;21.63;;;7.60;99.90;;;;;;5026636;28;20068;-73
2023/11/10 09:09:17;;;;;;;21.45;20.35;;;7.70;99.90;;;;;;5029222;28;20060;-74
2023/11/10 09:11:44;;;;;;;25.15;23.27;;;7.70;99.90;;;;;;5023319;28;20656;-73
2023/11/10 09:14:13;;;;;;;23.42;22.10;;;7.70;99.90;;;;;;5026233;28;20165;-73
2023/11/10 09:16:43;;;;;;;21.17;20.17;;;7.60;99.90;;;;;;5025398;28;20155;-73
2023/11/10 09:19:11;;;;;;;21.77;20.38;;;7.60;99.90;;;;;;5029618;28;20165;-74
2023/11/10 09:21:38;;;;;;;22.10;20.73;;;7.60;99.90;;;;;;5029792;28;20049;-75
2023/11/10 09:24:07;;;;;;;20.85;19.65;;;7.50;99.90;;;;;;5014000;28;20506;-76
2023/11/10 09:26:34;;;;;;;21.90;20.40;;;7.60;99.90;;;;;;5027073;28;20049;-75
2023/11/10 09:29:02;;;;;;;21.55;20.45;;;7.50;99.90;;;;;;5023436;28;20585;-75
2023/11/10 09:31:29;;;;;;;21.05;19.85;;;7.50;99.90;;;;;;5022965;28;20045;-72
2023/11/10 09:33:56;;;;;;;21.58;20.15;;;7.50;99.90;;;;;;5026569;28;20711;-74
2023/11/10 09:36:25;;;;;;;21.60;20.55;;;7.60;99.90;;;;;;5026210;28;20044;-74
2023/11/10 09:38:52;;;;;;;20.92;19.77;;;7.60;99.90;;;;;;5030534;28;20045;-73
2023/11/10 09:41:25;;;;;;;23.20;21.90;;;7.60;99.90;;;;;;5007649;28;20499;-74
2023/11/10 09:43:53;;;;;;;22.13;20.65;;;7.70;99.90;;;;;;5013302;28;20046;-74
2023/11/10 09:46:22;;;;;;;23.90;22.60;;;7.70;99.90;;;;;;5025494;28;20048;-74
2023/11/10 09:48:49;;;;;;;24.15;22.83;;;7.80;99.90;;;;;;5028805;28;20110;-74
2023/11/10 09:51:19;;;;;;;24.50;23.20;;;7.80;99.90;;;;;;5028579;28;20053;-74
2023/11/10 09:53:48;;;;;;;24.02;22.77;;;7.90;99.90;;;;;;5032444;28;20052;-75
2023/11/10 09:56:15;;;;;;;24.15;22.80;;;7.90;99.90;;;;;;5025581;28;20050;-75
2023/11/10 09:58:42;;;;;;;24.02;22.65;;;7.90;99.90;;;;;;5023424;28;20139;-73
2023/11/10 10:01:10;;;;;;;24.63;23.42;;;7.90;99.90;;;;;;5027571;28;20041;-74
2023/11/10 10:03:37;;;;;;;24.58;23.38;;;7.90;99.90;;;;;;5014541;28;20134;-73
2023/11/10 10:06:06;;;;;;;24.45;23.08;;;8.00;99.90;;;;;;5006392;28;20108;-72
2023/11/10 10:08:34;;;;;;;24.25;22.77;;;8.00;99.90;;;;;;5025132;28;20045;-73
2023/11/10 10:11:02;;;;;;;24.35;23.02;;;8.00;99.90;;;;;;5017215;28;20069;-73
2023/11/10 10:13:30;;;;;;;24.20;22.88;;;8.10;99.90;;;;;;5028701;28;20111;-73
2023/11/10 10:16:11;;;;;;;24.17;22.92;;;8.10;99.90;;;;;;5024843;28;20034;-73
2023/11/10 10:18:41;;;;;;;23.23;22.05;;;8.20;99.90;;;;;;5027124;28;21412;-73
2023/11/10 10:21:08;;;;;;;25.50;24.20;;;8.30;99.90;;;;;;5023855;28;20075;-73
2023/11/10 10:23:35;;;;;;;25.27;23.98;;;8.40;99.90;;;;;;5023765;28;20059;-74
2023/11/10 10:26:07;;;;;;;23.98;22.77;;;8.40;99.90;;;;;;5044357;28;20135;-73
2023/11/10 10:28:34;;;;;;;23.52;22.25;;;8.40;99.90;;;;;;5028091;28;20052;-74
2023/11/10 10:31:05;;;;;;;21.00;19.98;;;8.40;99.90;;;;;;5022250;28;20460;-73
2023/11/10 10:33:33;;;;;;;23.25;22.05;;;8.30;99.90;;;;;;5024616;28;20053;-73
2023/11/10 10:36:02;;;;;;;22.50;21.20;;;8.50;99.90;;;;;;5027095;28;20041;-72
2023/11/10 10:38:32;;;;;;;24.38;23.10;;;8.60;99.90;;;;;;5011104;28;20049;-74
2023/11/10 10:41:04;;;;;;;24.83;23.30;;;8.60;99.90;;;;;;5005809;28;20041;-73
2023/11/10 10:43:32;;;;;;;28.13;26.38;;;8.50;99.90;;;;;;5026166;28;20049;-74
2023/11/10 10:46:19;;;;;;;25.25;23.92;;;8.40;99.90;;;;;;5010355;28;20045;-73
2023/11/10 10:48:49;;;;;;;23.85;22.45;;;8.40;99.90;;;;;;5027461;28;20128;-74
2023/11/10 10:51:17;;;;;;;24.27;22.90;;;8.40;99.90;;;;;;5023190;28;20068;-73
2023/11/10 10:53:49;;;;;;;23.95;22.65;;;8.40;99.90;;;;;;4989735;28;1096617;-72
2023/11/10 10:56:18;;;;;;;27.17;25.67;;;8.50;99.90;;;;;;5027203;28;20766;-73
2023/11/10 10:59:06;;;;;;;27.42;26.13;;;8.70;99.90;;;;;;5013433;28;20128;-73
2023/11/10 11:01:36;;;;;;;26.33;25.02;;;9.00;99.90;;;;;;5022785;28;20746;-73
2023/11/10 11:04:52;;;;;;;24.48;23.13;;;9.10;99.90;;;;;;5023140;28;20119;-72
2023/11/10 11:07:48;;;;;;;26.08;24.88;;;9.20;99.90;;;;;;5024178;28;20049;-74
2023/11/10 11:10:48;;;;;;;24.75;23.48;;;9.20;99.90;;;;;;5013266;28;20041;-73
2023/11/10 11:13:24;;;;;;;27.38;25.75;;;9.30;99.90;;;;;;5024714;28;20053;-75
2023/11/10 11:16:07;;;;;;;22.80;21.38;;;9.40;99.90;;;;;;5026322;28;20045;-73
2023/11/10 11:18:47;;;;;;;23.67;22.27;;;9.50;99.90;;;;;;5023405;28;20040;-72
2023/11/10 11:21:15;;;;;;;28.77;26.52;;;9.70;99.90;;;;;;5023937;28;20069;-73
2023/11/10 11:23:43;;;;;;;24.77;23.23;;;9.70;99.90;;;;;;5005718;28;20049;-72
2023/11/10 11:26:15;;;;;;;24.58;22.77;;;9.60;99.90;;;;;;5010584;28;20037;-73
2023/11/10 11:28:42;;;;;;;24.58;22.98;;;9.40;99.90;;;;;;5028686;28;20114;-73
2023/11/10 11:31:12;;;;;;;23.58;22.08;;;9.40;99.90;;;;;;5027451;28;20466;-72
2023/11/10 11:33:46;;;;;;;23.95;22.65;;;9.50;99.90;;;;;;5008511;28;20056;-72
2023/11/10 11:36:16;;;;;;;24.60;23.20;;;9.60;99.90;;;;;;5029383;28;20065;-75
2023/11/10 11:38:51;;;;;;;26.95;25.65;;;9.90;99.90;;;;;;5023530;28;20053;-73
2023/11/10 11:41:19;;;;;;;26.15;24.65;;;9.90;99.90;;;;;;5026240;28;20052;-72
2023/11/10 11:43:49;;;;;;;24.77;23.27;;;9.90;99.90;;;;;;5025761;28;20060;-72
2023/11/10 11:46:16;;;;;;;25.52;23.73;;;9.80;99.90;;;;;;5025249;28;20059;-73
2023/11/10 11:48:44;;;;;;;23.77;22.58;;;9.90;99.90;;;;;;5029314;28;20045;-72
2023/11/10 11:51:12;;;;;;;25.17;23.67;;;9.90;99.90;;;;;;5023643;28;20037;-73
2023/11/10 11:53:38;;;;;;;25.05;23.35;;;9.90;99.90;;;;;;5023240;28;20497;-73
2023/11/10 11:56:07;;;;;;;25.75;24.35;;;9.80;99.90;;;;;;5021265;28;20051;-73
2023/11/10 11:58:36;;;;;;;24.15;22.65;;;9.90;99.90;;;;;;5020598;28;20050;-74
2023/11/10 12:01:04;;;;;;;24.65;23.05;;;10.00;99.90;;;;;;5024273;28;20041;-73
2023/11/10 12:03:31;;;;;;;24.73;23.15;;;9.90;99.90;;;;;;5023206;28;20056;-73
2023/11/10 12:05:58;;;;;;;27.83;26.23;;;9.80;99.90;;;;;;5024105;28;20049;-74
2023/11/10 12:08:26;;;;;;;25.30;23.80;;;9.70;99.90;;;;;;5022907;28;20051;-73
2023/11/10 12:10:53;;;;;;;24.60;23.15;;;9.60;99.90;;;;;;5004281;28;20040;-73
2023/11/10 12:13:22;;;;;;;25.13;23.77;;;9.70;99.90;;;;;;5022531;28;21333;-72
2023/11/10 12:15:48;;;;;;;24.60;23.00;;;9.80;99.90;;;;;;5017876;28;20136;-75
2023/11/10 12:18:17;;;;;;;25.90;24.27;;;10.00;99.90;;;;;;5024653;28;20060;-73
2023/11/10 12:20:44;;;;;;;26.10;24.52;;;10.00;99.90;;;;;;5024187;28;20098;-74
2023/11/10 12:23:14;;;;;;;24.02;22.50;;;9.90;99.90;;;;;;5011010;28;20048;-75
2023/11/10 12:25:41;;;;;;;27.08;25.50;;;9.90;99.90;;;;;;5010400;28;20853;-74
2023/11/10 12:28:12;;;;;;;27.10;25.15;;;10.10;99.90;;;;;;5020811;28;20064;-74
2023/11/10 12:30:40;;;;;;;25.42;23.85;;;10.10;99.90;;;;;;5022150;28;20040;-73
2023/11/10 12:33:09;;;;;;;25.00;23.63;;;10.10;99.90;;;;;;5020915;28;20151;-73
2023/11/10 12:35:39;;;;;;;25.50;23.95;;;10.10;99.90;;;;;;5029217;28;20071;-73
2023/11/10 12:38:07;;;;;;;27.42;25.67;;;10.10;99.90;;;;;;5013879;28;20112;-73
2023/11/10 12:40:37;;;;;;;26.45;24.73;;;10.20;99.90;;;;;;5021934;28;20049;-74
2023/11/10 12:43:07;;;;;;;24.70;23.27;;;10.30;99.90;;;;;;5021970;28;20060;-73